Time;durP1;ratioP1;P1;durP2;ratioP2;P2;SDS_P1;SDS_P2;PMS_P1;PMS_P2;Temp;Humidity;BMP_temperature;BMP_pressure;BME280_temperature;BME280_humidity;BME280_pressure;Samples;Min_cycle;Max_cycle;Signal;HPM_P1;HPM_P2
2021/07/08 08:12:27;;;;;;;2.70;1.45;;;;;;;28.71;34.47;100862.80;1695014;82;21067;-35
2021/07/08 08:14:54;;;;;;;7.80;2.02;;;;;;;28.69;35.13;100857.98;1703420;83;21034;-40
2021/07/08 08:17:22;;;;;;;6.87;1.30;;;;;;;28.68;33.40;100858.47;1694146;82;21647;-40
2021/07/08 08:19:50;;;;;;;5.60;1.32;;;;;;;28.70;33.36;100859.70;1727201;83;21037;-40
2021/07/08 08:22:18;;;;;;;5.47;1.52;;;;;;;28.72;32.37;100859.13;1725871;82;21014;-41
2021/07/08 08:24:44;;;;;;;2.25;1.40;;;;;;;28.70;32.93;100865.97;1727516;82;21025;-36
2021/07/08 08:27:11;;;;;;;6.00;1.35;;;;;;;28.78;33.92;100869.48;1721339;83;21112;-40
2021/07/08 08:29:40;;;;;;;2.87;1.60;;;;;;;28.87;34.20;100864.33;1692874;83;21347;-35
2021/07/08 08:32:09;;;;;;;2.77;1.02;;;;;;;28.93;33.44;100859.05;1719396;82;21093;-41
2021/07/08 08:34:36;;;;;;;3.52;1.12;;;;;;;28.98;33.26;100866.81;1727573;83;21014;-36
2021/07/08 08:37:05;;;;;;;5.97;1.10;;;;;;;29.04;33.32;100858.31;1715464;83;21033;-35
2021/07/08 08:39:33;;;;;;;5.65;1.12;;;;;;;29.08;33.13;100862.05;1681241;85;21084;-35
2021/07/08 08:41:59;;;;;;;5.70;1.40;;;;;;;29.12;32.80;100866.75;1698918;82;21042;-33
2021/07/08 08:44:27;;;;;;;4.10;1.60;;;;;;;29.13;32.69;100862.60;1727767;83;21041;-40
2021/07/08 08:46:53;;;;;;;3.72;1.62;;;;;;;29.16;32.97;100871.80;1727593;83;21562;-38
2021/07/08 08:49:21;;;;;;;2.75;1.25;;;;;;;29.21;32.97;100860.72;1727597;82;21034;-40
2021/07/08 08:51:47;;;;;;;2.40;1.25;;;;;;;29.24;32.69;100859.17;1727207;83;21620;-41
2021/07/08 08:54:14;;;;;;;5.95;1.37;;;;;;;29.27;32.73;100863.47;1719006;82;21568;-36
2021/07/08 08:56:41;;;;;;;6.72;1.30;;;;;;;29.32;33.06;100857.28;1705321;82;21046;-39
2021/07/08 08:59:07;;;;;;;4.15;1.87;;;;;;;29.36;33.46;100858.31;1715254;83;21655;-39
2021/07/08 09:01:35;;;;;;;8.73;1.50;;;;;;;29.38;33.56;100846.94;1715737;83;21579;-41
2021/07/08 09:04:03;;;;;;;3.02;1.52;;;;;;;29.42;34.10;100857.89;1715813;83;21176;-35
2021/07/08 09:06:36;;;;;;;4.95;1.20;;;;;;;29.42;32.97;100848.45;1715086;83;21096;-35
2021/07/08 09:09:09;;;;;;;11.20;1.77;;;;;;;29.45;31.88;100849.20;1683142;82;21533;-40
2021/07/08 09:11:38;;;;;;;4.95;1.42;;;;;;;29.46;32.50;100846.42;1693475;82;21028;-35
2021/07/08 09:14:05;;;;;;;4.15;1.50;;;;;;;29.52;31.59;100843.78;1725503;82;21053;-36
2021/07/08 09:16:38;;;;;;;2.33;1.45;;;;;;;29.56;31.97;100850.69;1730015;82;21049;-41
2021/07/08 09:19:21;;;;;;;6.70;1.20;;;;;;;29.59;32.47;100854.05;1734236;82;21525;-40
2021/07/08 09:21:52;;;;;;;2.60;1.22;;;;;;;29.65;32.25;100855.44;1732699;82;21073;-40
2021/07/08 09:24:27;;;;;;;5.05;1.20;;;;;;;29.73;32.18;100849.00;1733264;82;21030;-40
2021/07/08 09:26:58;;;;;;;8.78;1.32;;;;;;;29.78;31.86;100852.23;1727787;82;21080;-35
2021/07/08 09:29:31;;;;;;;4.20;1.35;;;;;;;29.83;32.45;100864.05;1735131;82;21577;-37
2021/07/08 09:32:02;;;;;;;5.92;1.62;;;;;;;29.85;31.56;100850.82;1727036;82;21092;-40
2021/07/08 09:34:32;;;;;;;2.60;1.15;;;;;;;29.85;31.47;100854.86;1712623;83;21125;-39
2021/07/08 09:37:12;;;;;;;5.45;1.10;;;;;;;29.84;31.38;100858.54;1715379;82;21104;-39
2021/07/08 09:39:46;;;;;;;11.30;1.45;;;;;;;29.85;31.76;100852.66;1697230;83;21147;-40
2021/07/08 09:42:16;;;;;;;4.67;1.85;;;;;;;29.88;31.27;100853.31;1719340;82;21596;-35
2021/07/08 09:44:43;;;;;;;4.55;1.20;;;;;;;29.92;31.08;100860.70;1699371;82;21107;-35
2021/07/08 09:47:24;;;;;;;5.50;1.27;;;;;;;29.90;30.97;100862.14;1726217;82;21037;-35
2021/07/08 09:49:51;;;;;;;2.17;1.10;;;;;;;29.89;30.55;100858.22;1721894;82;21012;-39
2021/07/08 09:52:18;;;;;;;3.65;1.05;;;;;;;29.88;29.97;100861.89;1730488;82;21130;-40
2021/07/08 09:57:41;;;;;;;2.98;1.27;;;;;;;29.89;31.12;100855.52;1723535;82;21981;-35
2021/07/08 10:00:22;;;;;;;9.18;1.30;;;;;;;29.90;30.52;100854.05;1720424;82;21013;-40
2021/07/08 10:02:53;;;;;;;7.35;1.40;;;;;;;29.90;31.14;100857.23;1728566;82;21545;-35
2021/07/08 10:05:21;;;;;;;4.72;1.55;;;;;;;29.87;31.25;100849.38;1732122;83;21476;-40
2021/07/08 10:07:50;;;;;;;8.48;1.50;;;;;;;29.85;30.84;100850.82;1732749;82;21041;-40
2021/07/08 10:10:18;;;;;;;2.10;1.20;;;;;;;29.85;31.11;100852.66;1732753;82;21045;-40
2021/07/08 10:12:46;;;;;;;9.60;1.55;;;;;;;29.85;31.38;100849.96;1733332;82;21058;-40
2021/07/08 10:15:14;;;;;;;4.60;1.42;;;;;;;29.83;31.27;100851.43;1734591;82;20994;-39
2021/07/08 10:17:43;;;;;;;6.35;1.50;;;;;;;29.82;30.98;100854.24;1732339;82;21096;-35
2021/07/08 10:20:14;;;;;;;3.60;1.42;;;;;;;29.81;30.90;100849.83;1733090;82;20990;-36
2021/07/08 10:22:41;;;;;;;5.75;1.25;;;;;;;29.81;30.85;100852.03;1734047;82;21116;-35
2021/07/08 10:25:10;;;;;;;8.43;1.10;;;;;;;29.83;30.61;100843.34;1732813;83;21030;-40
2021/07/08 10:27:38;;;;;;;4.85;1.45;;;;;;;29.84;30.55;100842.36;1732446;82;21564;-40
2021/07/08 10:30:07;;;;;;;7.92;1.72;;;;;;;29.85;30.14;100833.29;1727353;82;21033;-35
2021/07/08 10:32:34;;;;;;;6.25;1.30;;;;;;;29.90;29.88;100841.05;1733739;82;21004;-36
2021/07/08 10:35:01;;;;;;;3.85;0.95;;;;;;;29.97;29.42;100836.08;1733093;82;21006;-40
2021/07/08 10:37:32;;;;;;;2.37;1.20;;;;;;;30.06;28.38;100832.72;1712712;82;21056;-35
2021/07/08 10:39:59;;;;;;;4.55;1.20;;;;;;;30.18;28.85;100824.61;1719804;82;21033;-35
2021/07/08 10:42:49;;;;;;;2.15;1.00;;;;;;;30.42;29.37;100835.91;1725901;82;21006;-35
2021/07/08 10:45:38;;;;;;;4.92;1.42;;;;;;;30.75;29.26;100832.55;1723232;82;20944;-34
2021/07/08 10:48:17;;;;;;;2.05;1.32;;;;;;;31.17;29.27;100833.78;1732548;82;21049;-35
2021/07/08 10:50:48;;;;;;;3.80;1.30;;;;;;;31.55;29.40;100827.73;1727945;82;20954;-40
2021/07/08 10:53:20;;;;;;;3.65;1.60;;;;;;;31.76;29.56;100838.17;1732264;82;21033;-35
2021/07/08 10:56:03;;;;;;;4.80;1.42;;;;;;;31.87;29.04;100828.73;1733293;82;20989;-35
2021/07/08 10:58:57;;;;;;;10.23;1.50;;;;;;;31.92;27.87;100830.58;1732740;82;21100;-35
2021/07/08 11:01:27;;;;;;;4.78;1.10;;;;;;;32.05;27.60;100823.66;1733217;82;22128;-34
2021/07/08 11:03:55;;;;;;;3.55;1.32;;;;;;;32.07;27.93;100830.33;1732525;82;21516;-39
2021/07/08 11:06:30;;;;;;;2.02;1.05;;;;;;;32.09;27.43;100829.20;1733180;82;21524;-34
2021/07/08 11:09:07;;;;;;;7.97;1.42;;;;;;;31.93;26.92;100829.59;1735768;82;21092;-38
2021/07/08 11:11:42;;;;;;;2.70;1.10;;;;;;;31.83;27.99;100820.98;1716645;82;21033;-39
2021/07/08 11:14:16;;;;;;;6.35;1.95;;;;;;;31.65;27.65;100825.50;1723702;83;21053;-33
2021/07/08 11:16:49;;;;;;;4.58;1.22;;;;;;;31.59;28.41;100827.34;1699781;82;21053;-38
2021/07/08 11:19:24;;;;;;;2.37;1.17;;;;;;;31.43;27.33;100830.44;1734787;83;21100;-34
2021/07/08 11:22:07;;;;;;;3.62;1.20;;;;;;;31.26;27.04;100833.60;1734082;82;21014;-39
2021/07/08 11:24:47;;;;;;;5.15;1.30;;;;;;;31.09;28.03;100826.77;1735198;82;21073;-40
2021/07/08 11:27:17;;;;;;;4.60;1.20;;;;;;;31.03;28.03;100824.55;1730599;82;21057;-40
2021/07/08 11:29:50;;;;;;;5.30;1.80;;;;;;;30.92;26.98;100829.91;1732642;82;21061;-40
2021/07/08 11:35:18;;;;;;;3.85;1.42;;;;;;;30.73;27.60;100831.78;1696212;82;21033;-35
2021/07/08 11:37:44;;;;;;;4.70;1.47;;;;;;;30.66;28.42;100842.66;1725246;82;21560;-35
2021/07/08 11:40:13;;;;;;;4.20;1.00;;;;;;;30.56;27.59;100826.31;1711392;83;20994;-38
2021/07/08 11:42:44;;;;;;;5.72;1.17;;;;;;;30.50;27.58;100835.33;1726284;82;21641;-41
2021/07/08 11:45:24;;;;;;;4.35;1.20;;;;;;;30.36;28.90;100834.53;1732524;82;21034;-34
2021/07/08 11:47:56;;;;;;;3.35;1.45;;;;;;;30.27;29.25;100831.64;1731151;82;21045;-39
2021/07/08 11:50:28;;;;;;;4.70;1.72;;;;;;;30.22;28.54;100831.15;1711452;83;21012;-39
2021/07/08 11:53:18;;;;;;;3.42;1.52;;;;;;;30.11;29.53;100827.39;1729093;82;21058;-33
2021/07/08 11:55:53;;;;;;;3.17;1.17;;;;;;;30.08;29.49;100826.22;1732838;83;21022;-40
2021/07/08 11:58:30;;;;;;;5.10;1.32;;;;;;;30.04;30.22;100830.14;1732709;83;21161;-35
2021/07/08 12:01:08;;;;;;;3.20;1.32;;;;;;;30.02;30.37;100824.47;1732640;82;21526;-40
2021/07/08 12:03:40;;;;;;;4.83;1.12;;;;;;;29.98;29.38;100825.66;1732143;83;21077;-35
2021/07/08 12:06:12;;;;;;;1.02;0.93;;;;;;;29.90;30.30;100823.04;1733846;82;21009;-40
2021/07/08 12:08:52;;;;;;;7.33;1.07;;;;;;;29.81;29.76;100826.42;1728281;82;21037;-41
2021/07/08 12:11:32;;;;;;;2.95;1.20;;;;;;;29.72;30.53;100820.81;1733938;82;21021;-33
2021/07/08 12:14:07;;;;;;;2.08;1.00;;;;;;;29.63;31.54;100820.97;1726369;82;21124;-39
2021/07/08 12:16:37;;;;;;;4.22;1.50;;;;;;;29.57;31.74;100826.34;1718601;82;21093;-40
2021/07/08 12:19:22;;;;;;;5.75;1.20;;;;;;;29.56;31.08;100823.25;1713173;83;21092;-39
2021/07/08 12:21:50;;;;;;;3.00;1.40;;;;;;;29.57;30.82;100827.70;1723230;82;21069;-40
2021/07/08 12:24:26;;;;;;;2.60;1.40;;;;;;;29.63;31.40;100829.06;1720010;82;21045;-40
2021/07/08 12:26:56;;;;;;;1.20;0.93;;;;;;;29.64;31.11;100826.77;1729850;82;21017;-40
2021/07/08 12:29:27;;;;;;;13.28;1.77;;;;;;;29.64;31.55;100819.54;1731796;83;21037;-36
2021/07/08 12:32:03;;;;;;;9.13;1.40;;;;;;;29.63;30.85;100817.82;1732469;83;21089;-39
2021/07/08 12:34:38;;;;;;;2.12;1.00;;;;;;;29.60;31.43;100822.06;1732502;83;21093;-36
2021/07/08 12:37:28;;;;;;;3.45;1.75;;;;;;;29.62;30.84;100813.86;1728694;83;21073;-39
2021/07/08 12:40:01;;;;;;;7.58;1.30;;;;;;;29.61;31.69;100817.05;1732848;82;21037;-40
2021/07/08 12:42:30;;;;;;;3.75;1.30;;;;;;;29.59;30.75;100811.41;1732611;82;21089;-38
2021/07/08 12:45:09;;;;;;;2.83;1.12;;;;;;;29.56;32.29;100818.34;1725257;82;21613;-35
2021/07/08 12:47:37;;;;;;;6.78;1.22;;;;;;;29.58;31.67;100817.28;1723345;82;21093;-35
2021/07/08 12:50:06;;;;;;;5.25;1.65;;;;;;;29.57;31.74;100820.95;1730922;82;21029;-35
2021/07/08 12:52:33;;;;;;;6.42;1.50;;;;;;;29.58;31.22;100809.20;1722048;82;21029;-35
2021/07/08 12:54:59;;;;;;;7.12;1.30;;;;;;;29.63;31.50;100809.73;1706937;83;21029;-40
2021/07/08 12:57:26;;;;;;;3.95;1.50;;;;;;;29.71;31.97;100813.70;1683215;85;21100;-40
2021/07/08 13:00:05;;;;;;;1.70;1.22;;;;;;;29.75;31.63;100807.13;1715993;83;21493;-39
2021/07/08 13:02:34;;;;;;;8.65;1.20;;;;;;;29.76;30.72;100804.31;1715376;83;21053;-40
2021/07/08 13:05:10;;;;;;;3.72;1.00;;;;;;;29.74;31.28;100810.77;1715944;83;21564;-35
2021/07/08 13:07:39;;;;;;;2.20;1.07;;;;;;;29.73;31.08;100802.31;1720612;82;21045;-36
2021/07/08 13:10:11;;;;;;;3.40;1.30;;;;;;;29.70;30.78;100810.15;1723124;83;21368;-40
2021/07/08 13:12:38;;;;;;;;;;;;;;;29.65;31.07;100802.38;1690999;84;21581;-40
2021/07/08 13:15:22;;;;;;;3.40;1.07;;;;;;;29.64;31.14;100804.71;1675554;86;20128;-35
2021/07/08 13:18:09;;;;;;;5.37;1.15;;;;;;;29.63;30.48;100810.19;1677685;84;21113;-35
2021/07/08 13:20:39;;;;;;;6.75;1.27;;;;;;;29.63;30.64;100808.38;1679867;85;20994;-34
2021/07/08 13:23:23;;;;;;;3.45;1.35;;;;;;;29.64;30.56;100808.75;1732839;82;21069;-38
2021/07/08 13:25:56;;;;;;;9.73;1.00;;;;;;;29.62;30.44;100805.77;1729115;82;21708;-33
2021/07/08 13:28:31;;;;;;;2.62;1.00;;;;;;;29.61;31.37;100805.41;1731890;82;21067;-35
2021/07/08 13:31:10;;;;;;;5.45;1.25;;;;;;;29.63;31.08;100807.03;1733354;82;21033;-34
2021/07/08 13:33:55;;;;;;;2.58;1.12;;;;;;;29.70;31.00;100799.86;1678913;85;21066;-35
2021/07/08 13:36:26;;;;;;;5.03;1.20;;;;;;;29.73;30.53;100802.31;1650230;86;20958;-39
2021/07/08 13:39:08;;;;;;;3.17;1.17;;;;;;;29.73;30.52;100803.66;1731701;82;21053;-34
2021/07/08 13:41:41;;;;;;;1.52;0.80;;;;;;;29.75;30.32;100798.55;1728060;82;20982;-34
